Granada Hills, California
Current Conditions -  °F | °C
As of 4:51 AM on Thursday 27 Nov 2014 (Local Time) from KVNY Reporting Station
Clear Clear  
Wind Chill: 51°   Ceiling: Unl
Heat Index: 51°   Visibility: 10mi
Dew Point: 30°   Wind: 0mph
Humidity: 44%   Direction: NA
Pressure: 30.11"   Gusts: NA
Location:  34.26°N, 118.52°W
Report Text: KVNY 271251Z 00000KT 10SM CLR 11/M01 A3011 RMK AO2 SLP191 T01061011
Loading
Personal Weather Stations






























Interactive Weather Map New forecast layout! Learn more

10-Day Weather Forecast

Advertisements
Track Severe Weather on mobile